sensor_id;sensor_type;location;lat;lon;timestamp;P1;durP1;ratioP1;P2;durP2;ratioP2
76978;SDS011;65911;47.502;19.148;2023-12-22T00:02:55;12.13;;;7.65;;
76978;SDS011;65911;47.502;19.148;2023-12-22T00:05:58;10.00;;;6.75;;
76978;SDS011;65911;47.502;19.148;2023-12-22T00:09:00;11.60;;;6.63;;
76978;SDS011;65911;47.502;19.148;2023-12-22T00:12:02;10.47;;;6.10;;
76978;SDS011;65911;47.502;19.148;2023-12-22T00:15:05;8.25;;;4.95;;
76978;SDS011;65911;47.502;19.148;2023-12-22T00:18:08;8.48;;;5.28;;
76978;SDS011;65911;47.502;19.148;2023-12-22T00:21:10;7.57;;;4.97;;
76978;SDS011;65911;47.502;19.148;2023-12-22T00:24:13;7.28;;;4.43;;
76978;SDS011;65911;47.502;19.148;2023-12-22T00:27:15;6.28;;;4.10;;
76978;SDS011;65911;47.502;19.148;2023-12-22T00:30:17;7.82;;;4.45;;
76978;SDS011;65911;47.502;19.148;2023-12-22T00:33:20;6.35;;;4.22;;
76978;SDS011;65911;47.502;19.148;2023-12-22T00:36:22;7.57;;;4.25;;
76978;SDS011;65911;47.502;19.148;2023-12-22T00:39:26;6.20;;;4.38;;
76978;SDS011;65911;47.502;19.148;2023-12-22T00:42:28;6.83;;;4.23;;
76978;SDS011;65911;47.502;19.148;2023-12-22T00:45:30;6.55;;;4.50;;
76978;SDS011;65911;47.502;19.148;2023-12-22T00:48:33;8.55;;;4.28;;
76978;SDS011;65911;47.502;19.148;2023-12-22T00:51:35;8.33;;;5.17;;
76978;SDS011;65911;47.502;19.148;2023-12-22T00:54:37;6.20;;;4.32;;
76978;SDS011;65911;47.502;19.148;2023-12-22T00:57:39;5.80;;;3.88;;
76978;SDS011;65911;47.502;19.148;2023-12-22T01:00:42;9.07;;;4.82;;
76978;SDS011;65911;47.502;19.148;2023-12-22T01:03:44;6.80;;;4.45;;
76978;SDS011;65911;47.502;19.148;2023-12-22T01:06:46;7.10;;;4.63;;
76978;SDS011;65911;47.502;19.148;2023-12-22T01:09:49;7.55;;;4.40;;
76978;SDS011;65911;47.502;19.148;2023-12-22T01:12:51;6.50;;;4.20;;
76978;SDS011;65911;47.502;19.148;2023-12-22T01:15:53;6.57;;;4.60;;
76978;SDS011;65911;47.502;19.148;2023-12-22T01:18:55;7.07;;;3.90;;
76978;SDS011;65911;47.502;19.148;2023-12-22T01:21:58;7.07;;;4.10;;
76978;SDS011;65911;47.502;19.148;2023-12-22T01:25:00;5.72;;;3.65;;
76978;SDS011;65911;47.502;19.148;2023-12-22T01:28:03;6.03;;;3.40;;
76978;SDS011;65911;47.502;19.148;2023-12-22T01:31:07;5.00;;;3.45;;
76978;SDS011;65911;47.502;19.148;2023-12-22T01:34:09;4.28;;;3.47;;
76978;SDS011;65911;47.502;19.148;2023-12-22T01:37:11;5.32;;;3.50;;
76978;SDS011;65911;47.502;19.148;2023-12-22T01:40:13;4.20;;;3.17;;
76978;SDS011;65911;47.502;19.148;2023-12-22T01:43:15;4.47;;;3.10;;
76978;SDS011;65911;47.502;19.148;2023-12-22T01:46:23;4.05;;;2.97;;
76978;SDS011;65911;47.502;19.148;2023-12-22T01:49:26;4.03;;;2.72;;
76978;SDS011;65911;47.502;19.148;2023-12-22T01:52:29;5.97;;;3.30;;
76978;SDS011;65911;47.502;19.148;2023-12-22T01:55:31;4.45;;;2.63;;
76978;SDS011;65911;47.502;19.148;2023-12-22T01:58:34;3.35;;;2.53;;
76978;SDS011;65911;47.502;19.148;2023-12-22T02:01:48;3.42;;;2.53;;
76978;SDS011;65911;47.502;19.148;2023-12-22T02:04:50;4.60;;;2.67;;
76978;SDS011;65911;47.502;19.148;2023-12-22T02:07:53;4.50;;;2.38;;
76978;SDS011;65911;47.502;19.148;2023-12-22T02:10:55;4.03;;;2.50;;
76978;SDS011;65911;47.502;19.148;2023-12-22T02:13:58;5.03;;;2.00;;
76978;SDS011;65911;47.502;19.148;2023-12-22T02:20:11;3.90;;;1.77;;
76978;SDS011;65911;47.502;19.148;2023-12-22T02:23:15;3.70;;;2.30;;
76978;SDS011;65911;47.502;19.148;2023-12-22T02:26:19;1.92;;;1.67;;
76978;SDS011;65911;47.502;19.148;2023-12-22T02:29:27;3.03;;;1.75;;
76978;SDS011;65911;47.502;19.148;2023-12-22T02:32:33;3.58;;;1.88;;
76978;SDS011;65911;47.502;19.148;2023-12-22T02:35:37;3.35;;;1.90;;
76978;SDS011;65911;47.502;19.148;2023-12-22T02:38:40;2.15;;;1.60;;
76978;SDS011;65911;47.502;19.148;2023-12-22T02:41:43;3.53;;;1.63;;
76978;SDS011;65911;47.502;19.148;2023-12-22T02:44:46;1.50;;;1.27;;
76978;SDS011;65911;47.502;19.148;2023-12-22T02:47:48;1.40;;;1.05;;
76978;SDS011;65911;47.502;19.148;2023-12-22T02:50:51;2.45;;;1.30;;
76978;SDS011;65911;47.502;19.148;2023-12-22T02:53:53;1.30;;;1.03;;
76978;SDS011;65911;47.502;19.148;2023-12-22T02:56:55;2.90;;;1.17;;
76978;SDS011;65911;47.502;19.148;2023-12-22T02:59:58;1.35;;;1.23;;
76978;SDS011;65911;47.502;19.148;2023-12-22T03:03:00;2.63;;;1.40;;
76978;SDS011;65911;47.502;19.148;2023-12-22T03:06:02;2.78;;;1.17;;
76978;SDS011;65911;47.502;19.148;2023-12-22T03:09:05;1.23;;;1.13;;
76978;SDS011;65911;47.502;19.148;2023-12-22T03:12:08;1.90;;;1.48;;
76978;SDS011;65911;47.502;19.148;2023-12-22T03:15:10;2.33;;;1.30;;
76978;SDS011;65911;47.502;19.148;2023-12-22T03:18:13;2.17;;;1.40;;
76978;SDS011;65911;47.502;19.148;2023-12-22T03:21:16;1.15;;;1.05;;
76978;SDS011;65911;47.502;19.148;2023-12-22T03:24:20;1.67;;;1.30;;
76978;SDS011;65911;47.502;19.148;2023-12-22T03:27:26;0.85;;;0.85;;
76978;SDS011;65911;47.502;19.148;2023-12-22T03:30:28;2.65;;;1.10;;
76978;SDS011;65911;47.502;19.148;2023-12-22T03:33:30;0.88;;;0.88;;
76978;SDS011;65911;47.502;19.148;2023-12-22T03:36:33;0.82;;;0.82;;
76978;SDS011;65911;47.502;19.148;2023-12-22T03:39:35;1.30;;;0.77;;
76978;SDS011;65911;47.502;19.148;2023-12-22T03:42:37;2.33;;;0.80;;
76978;SDS011;65911;47.502;19.148;2023-12-22T03:45:40;2.30;;;0.87;;
76978;SDS011;65911;47.502;19.148;2023-12-22T03:48:42;2.25;;;0.85;;
76978;SDS011;65911;47.502;19.148;2023-12-22T03:51:45;0.95;;;0.70;;
76978;SDS011;65911;47.502;19.148;2023-12-22T03:54:47;1.20;;;0.90;;
76978;SDS011;65911;47.502;19.148;2023-12-22T03:57:49;2.85;;;0.70;;
76978;SDS011;65911;47.502;19.148;2023-12-22T04:00:52;0.90;;;0.60;;
76978;SDS011;65911;47.502;19.148;2023-12-22T04:03:54;3.63;;;0.80;;
76978;SDS011;65911;47.502;19.148;2023-12-22T04:06:57;1.70;;;1.08;;
76978;SDS011;65911;47.502;19.148;2023-12-22T04:09:59;2.22;;;1.00;;
76978;SDS011;65911;47.502;19.148;2023-12-22T04:13:01;1.00;;;0.55;;
76978;SDS011;65911;47.502;19.148;2023-12-22T04:16:04;1.10;;;0.60;;
76978;SDS011;65911;47.502;19.148;2023-12-22T04:19:07;2.40;;;0.70;;
76978;SDS011;65911;47.502;19.148;2023-12-22T04:22:13;1.33;;;1.00;;
76978;SDS011;65911;47.502;19.148;2023-12-22T04:25:15;1.70;;;0.63;;
76978;SDS011;65911;47.502;19.148;2023-12-22T04:28:18;2.35;;;0.68;;
76978;SDS011;65911;47.502;19.148;2023-12-22T04:31:20;4.55;;;0.80;;
76978;SDS011;65911;47.502;19.148;2023-12-22T04:34:22;2.33;;;0.77;;
76978;SDS011;65911;47.502;19.148;2023-12-22T04:37:25;2.42;;;0.60;;
76978;SDS011;65911;47.502;19.148;2023-12-22T04:40:27;1.85;;;0.82;;
76978;SDS011;65911;47.502;19.148;2023-12-22T04:43:30;4.28;;;0.30;;
76978;SDS011;65911;47.502;19.148;2023-12-22T04:46:32;1.30;;;0.53;;
76978;SDS011;65911;47.502;19.148;2023-12-22T04:49:35;2.75;;;0.70;;
76978;SDS011;65911;47.502;19.148;2023-12-22T04:52:37;1.58;;;0.70;;
76978;SDS011;65911;47.502;19.148;2023-12-22T04:55:39;1.33;;;0.73;;
76978;SDS011;65911;47.502;19.148;2023-12-22T04:58:44;2.83;;;0.70;;
76978;SDS011;65911;47.502;19.148;2023-12-22T05:01:47;0.95;;;0.70;;
76978;SDS011;65911;47.502;19.148;2023-12-22T05:04:51;1.83;;;0.73;;
76978;SDS011;65911;47.502;19.148;2023-12-22T05:07:53;3.50;;;0.55;;
76978;SDS011;65911;47.502;19.148;2023-12-22T05:10:55;1.70;;;0.80;;
76978;SDS011;65911;47.502;19.148;2023-12-22T05:13:58;1.73;;;0.50;;
76978;SDS011;65911;47.502;19.148;2023-12-22T05:17:03;1.37;;;0.40;;
76978;SDS011;65911;47.502;19.148;2023-12-22T05:20:06;3.35;;;1.05;;
76978;SDS011;65911;47.502;19.148;2023-12-22T05:23:09;2.33;;;0.50;;
76978;SDS011;65911;47.502;19.148;2023-12-22T05:26:15;2.93;;;0.93;;
76978;SDS011;65911;47.502;19.148;2023-12-22T05:29:18;2.67;;;0.60;;
76978;SDS011;65911;47.502;19.148;2023-12-22T05:32:21;1.98;;;0.50;;
76978;SDS011;65911;47.502;19.148;2023-12-22T05:35:23;2.22;;;0.77;;
76978;SDS011;65911;47.502;19.148;2023-12-22T05:38:26;1.02;;;0.77;;
76978;SDS011;65911;47.502;19.148;2023-12-22T05:41:28;1.40;;;0.85;;
76978;SDS011;65911;47.502;19.148;2023-12-22T05:44:30;1.30;;;0.70;;
76978;SDS011;65911;47.502;19.148;2023-12-22T05:47:33;1.17;;;0.53;;
76978;SDS011;65911;47.502;19.148;2023-12-22T05:50:35;1.42;;;0.40;;
76978;SDS011;65911;47.502;19.148;2023-12-22T05:53:38;2.92;;;0.68;;
76978;SDS011;65911;47.502;19.148;2023-12-22T05:56:40;1.57;;;0.90;;
76978;SDS011;65911;47.502;19.148;2023-12-22T05:59:43;4.30;;;0.63;;
76978;SDS011;65911;47.502;19.148;2023-12-22T06:02:45;1.90;;;0.60;;
76978;SDS011;65911;47.502;19.148;2023-12-22T06:05:47;1.67;;;1.38;;
76978;SDS011;65911;47.502;19.148;2023-12-22T06:08:50;4.20;;;1.20;;
76978;SDS011;65911;47.502;19.148;2023-12-22T06:11:53;1.83;;;1.02;;
76978;SDS011;65911;47.502;19.148;2023-12-22T06:14:56;2.95;;;0.75;;
76978;SDS011;65911;47.502;19.148;2023-12-22T06:17:58;3.97;;;1.00;;
76978;SDS011;65911;47.502;19.148;2023-12-22T06:21:00;2.25;;;1.05;;
76978;SDS011;65911;47.502;19.148;2023-12-22T06:24:04;4.50;;;0.60;;
76978;SDS011;65911;47.502;19.148;2023-12-22T06:27:06;2.73;;;0.63;;
76978;SDS011;65911;47.502;19.148;2023-12-22T06:30:08;3.58;;;0.90;;
76978;SDS011;65911;47.502;19.148;2023-12-22T06:33:11;4.15;;;0.98;;
76978;SDS011;65911;47.502;19.148;2023-12-22T06:36:20;3.70;;;0.95;;
76978;SDS011;65911;47.502;19.148;2023-12-22T06:39:23;3.03;;;0.70;;
76978;SDS011;65911;47.502;19.148;2023-12-22T06:42:25;2.88;;;1.15;;
76978;SDS011;65911;47.502;19.148;2023-12-22T06:45:28;1.98;;;0.98;;
76978;SDS011;65911;47.502;19.148;2023-12-22T06:48:31;3.50;;;0.77;;
76978;SDS011;65911;47.502;19.148;2023-12-22T06:51:34;3.67;;;1.27;;
76978;SDS011;65911;47.502;19.148;2023-12-22T06:54:37;4.40;;;1.00;;
76978;SDS011;65911;47.502;19.148;2023-12-22T06:57:40;1.93;;;0.80;;
76978;SDS011;65911;47.502;19.148;2023-12-22T07:00:43;5.03;;;0.82;;
76978;SDS011;65911;47.502;19.148;2023-12-22T07:03:46;2.00;;;1.00;;
76978;SDS011;65911;47.502;19.148;2023-12-22T07:06:50;4.45;;;0.55;;
76978;SDS011;65911;47.502;19.148;2023-12-22T07:09:52;1.77;;;0.57;;
76978;SDS011;65911;47.502;19.148;2023-12-22T07:12:55;2.42;;;0.70;;
76978;SDS011;65911;47.502;19.148;2023-12-22T07:15:57;5.60;;;0.80;;
76978;SDS011;65911;47.502;19.148;2023-12-22T07:18:59;2.40;;;0.70;;
76978;SDS011;65911;47.502;19.148;2023-12-22T07:22:02;5.47;;;0.93;;
76978;SDS011;65911;47.502;19.148;2023-12-22T07:25:06;1.67;;;0.75;;
76978;SDS011;65911;47.502;19.148;2023-12-22T07:28:10;3.30;;;1.00;;
76978;SDS011;65911;47.502;19.148;2023-12-22T07:31:12;3.03;;;0.82;;
76978;SDS011;65911;47.502;19.148;2023-12-22T07:34:16;1.77;;;0.90;;
76978;SDS011;65911;47.502;19.148;2023-12-22T07:37:23;4.15;;;1.05;;
76978;SDS011;65911;47.502;19.148;2023-12-22T07:40:25;1.95;;;1.10;;
76978;SDS011;65911;47.502;19.148;2023-12-22T07:43:27;6.05;;;1.20;;
76978;SDS011;65911;47.502;19.148;2023-12-22T07:46:31;5.00;;;1.25;;
76978;SDS011;65911;47.502;19.148;2023-12-22T07:49:33;3.47;;;0.90;;
76978;SDS011;65911;47.502;19.148;2023-12-22T07:52:36;3.05;;;0.75;;
76978;SDS011;65911;47.502;19.148;2023-12-22T07:55:42;2.72;;;0.90;;
76978;SDS011;65911;47.502;19.148;2023-12-22T07:58:45;4.20;;;1.20;;
76978;SDS011;65911;47.502;19.148;2023-12-22T08:01:48;2.08;;;0.70;;
76978;SDS011;65911;47.502;19.148;2023-12-22T08:04:50;3.47;;;0.90;;
76978;SDS011;65911;47.502;19.148;2023-12-22T08:07:53;3.28;;;0.95;;
76978;SDS011;65911;47.502;19.148;2023-12-22T08:10:55;3.45;;;1.10;;
76978;SDS011;65911;47.502;19.148;2023-12-22T08:13:58;3.75;;;1.10;;
76978;SDS011;65911;47.502;19.148;2023-12-22T08:17:02;2.78;;;0.90;;
76978;SDS011;65911;47.502;19.148;2023-12-22T08:20:05;1.97;;;0.60;;
76978;SDS011;65911;47.502;19.148;2023-12-22T08:23:20;3.70;;;1.02;;
76978;SDS011;65911;47.502;19.148;2023-12-22T08:26:24;3.42;;;0.70;;
76978;SDS011;65911;47.502;19.148;2023-12-22T08:29:26;2.80;;;0.83;;
76978;SDS011;65911;47.502;19.148;2023-12-22T08:32:28;5.15;;;0.75;;
76978;SDS011;65911;47.502;19.148;2023-12-22T08:35:31;2.65;;;0.88;;
76978;SDS011;65911;47.502;19.148;2023-12-22T08:38:34;2.35;;;0.60;;
76978;SDS011;65911;47.502;19.148;2023-12-22T08:41:39;3.55;;;1.13;;
76978;SDS011;65911;47.502;19.148;2023-12-22T08:44:41;2.63;;;0.88;;
76978;SDS011;65911;47.502;19.148;2023-12-22T08:47:44;2.70;;;0.90;;
76978;SDS011;65911;47.502;19.148;2023-12-22T08:50:46;3.27;;;0.53;;
76978;SDS011;65911;47.502;19.148;2023-12-22T08:53:49;2.85;;;0.85;;
76978;SDS011;65911;47.502;19.148;2023-12-22T08:56:52;4.53;;;0.70;;
76978;SDS011;65911;47.502;19.148;2023-12-22T08:59:54;2.87;;;0.50;;
76978;SDS011;65911;47.502;19.148;2023-12-22T09:02:57;2.45;;;0.52;;
76978;SDS011;65911;47.502;19.148;2023-12-22T09:06:00;4.95;;;0.90;;
76978;SDS011;65911;47.502;19.148;2023-12-22T09:09:02;1.90;;;0.88;;
76978;SDS011;65911;47.502;19.148;2023-12-22T09:12:05;1.67;;;0.73;;
76978;SDS011;65911;47.502;19.148;2023-12-22T09:15:08;2.65;;;1.15;;
76978;SDS011;65911;47.502;19.148;2023-12-22T09:18:10;3.35;;;0.70;;
76978;SDS011;65911;47.502;19.148;2023-12-22T09:21:13;2.13;;;0.60;;
76978;SDS011;65911;47.502;19.148;2023-12-22T09:24:15;2.30;;;0.90;;
76978;SDS011;65911;47.502;19.148;2023-12-22T09:27:19;0.98;;;0.60;;
76978;SDS011;65911;47.502;19.148;2023-12-22T09:30:21;4.00;;;0.83;;
76978;SDS011;65911;47.502;19.148;2023-12-22T09:33:24;5.88;;;1.30;;
76978;SDS011;65911;47.502;19.148;2023-12-22T09:36:26;2.53;;;1.25;;
76978;SDS011;65911;47.502;19.148;2023-12-22T09:39:29;11.85;;;2.00;;
76978;SDS011;65911;47.502;19.148;2023-12-22T09:42:31;4.68;;;2.00;;
76978;SDS011;65911;47.502;19.148;2023-12-22T09:45:34;4.00;;;1.70;;
76978;SDS011;65911;47.502;19.148;2023-12-22T09:48:36;6.80;;;1.40;;
76978;SDS011;65911;47.502;19.148;2023-12-22T09:51:42;2.83;;;1.03;;
76978;SDS011;65911;47.502;19.148;2023-12-22T09:54:45;5.97;;;1.20;;
76978;SDS011;65911;47.502;19.148;2023-12-22T09:57:49;5.13;;;1.23;;
76978;SDS011;65911;47.502;19.148;2023-12-22T10:00:52;2.17;;;1.07;;
76978;SDS011;65911;47.502;19.148;2023-12-22T10:03:55;2.85;;;0.95;;
76978;SDS011;65911;47.502;19.148;2023-12-22T10:06:58;2.63;;;0.88;;
76978;SDS011;65911;47.502;19.148;2023-12-22T10:10:03;2.83;;;1.07;;
76978;SDS011;65911;47.502;19.148;2023-12-22T10:13:06;3.67;;;0.90;;
76978;SDS011;65911;47.502;19.148;2023-12-22T10:16:11;3.17;;;0.85;;
76978;SDS011;65911;47.502;19.148;2023-12-22T10:19:14;1.77;;;1.00;;
76978;SDS011;65911;47.502;19.148;2023-12-22T10:22:16;2.72;;;1.00;;
76978;SDS011;65911;47.502;19.148;2023-12-22T10:25:19;2.13;;;0.80;;
76978;SDS011;65911;47.502;19.148;2023-12-22T10:28:22;2.47;;;0.90;;
76978;SDS011;65911;47.502;19.148;2023-12-22T10:31:27;1.92;;;0.60;;
76978;SDS011;65911;47.502;19.148;2023-12-22T10:34:32;2.70;;;1.15;;
76978;SDS011;65911;47.502;19.148;2023-12-22T10:37:35;3.00;;;0.90;;
76978;SDS011;65911;47.502;19.148;2023-12-22T10:40:38;1.40;;;0.77;;
76978;SDS011;65911;47.502;19.148;2023-12-22T10:43:40;1.73;;;0.45;;
76978;SDS011;65911;47.502;19.148;2023-12-22T10:46:43;2.85;;;0.82;;
76978;SDS011;65911;47.502;19.148;2023-12-22T10:49:46;1.67;;;0.60;;
76978;SDS011;65911;47.502;19.148;2023-12-22T10:52:49;2.58;;;0.40;;
76978;SDS011;65911;47.502;19.148;2023-12-22T10:55:53;2.05;;;0.63;;
76978;SDS011;65911;47.502;19.148;2023-12-22T10:58:55;2.47;;;0.63;;
76978;SDS011;65911;47.502;19.148;2023-12-22T11:01:58;1.27;;;0.63;;
76978;SDS011;65911;47.502;19.148;2023-12-22T11:05:01;2.00;;;0.68;;
76978;SDS011;65911;47.502;19.148;2023-12-22T11:08:07;1.75;;;0.85;;
76978;SDS011;65911;47.502;19.148;2023-12-22T11:11:16;4.40;;;1.03;;
76978;SDS011;65911;47.502;19.148;2023-12-22T11:14:19;1.83;;;0.80;;
76978;SDS011;65911;47.502;19.148;2023-12-22T11:17:22;2.47;;;0.75;;
76978;SDS011;65911;47.502;19.148;2023-12-22T11:20:24;1.77;;;0.70;;
76978;SDS011;65911;47.502;19.148;2023-12-22T11:23:28;1.70;;;0.55;;
76978;SDS011;65911;47.502;19.148;2023-12-22T11:26:32;0.98;;;0.60;;
76978;SDS011;65911;47.502;19.148;2023-12-22T11:29:35;1.15;;;0.60;;
76978;SDS011;65911;47.502;19.148;2023-12-22T11:32:39;1.02;;;0.57;;
76978;SDS011;65911;47.502;19.148;2023-12-22T11:35:41;2.67;;;1.00;;
76978;SDS011;65911;47.502;19.148;2023-12-22T11:38:45;2.28;;;0.75;;
76978;SDS011;65911;47.502;19.148;2023-12-22T11:41:48;1.33;;;0.60;;
76978;SDS011;65911;47.502;19.148;2023-12-22T11:44:52;1.98;;;0.80;;
76978;SDS011;65911;47.502;19.148;2023-12-22T11:47:54;2.25;;;0.65;;
76978;SDS011;65911;47.502;19.148;2023-12-22T11:50:58;2.97;;;0.93;;
76978;SDS011;65911;47.502;19.148;2023-12-22T11:54:00;3.30;;;0.77;;
76978;SDS011;65911;47.502;19.148;2023-12-22T11:57:03;1.42;;;0.68;;
76978;SDS011;65911;47.502;19.148;2023-12-22T12:03:21;2.33;;;0.90;;
76978;SDS011;65911;47.502;19.148;2023-12-22T12:09:44;1.83;;;0.60;;
76978;SDS011;65911;47.502;19.148;2023-12-22T12:12:47;2.00;;;0.53;;
76978;SDS011;65911;47.502;19.148;2023-12-22T12:15:49;2.25;;;0.50;;
76978;SDS011;65911;47.502;19.148;2023-12-22T12:18:53;0.90;;;0.70;;
76978;SDS011;65911;47.502;19.148;2023-12-22T12:21:55;1.57;;;0.60;;
76978;SDS011;65911;47.502;19.148;2023-12-22T12:24:58;0.73;;;0.47;;
76978;SDS011;65911;47.502;19.148;2023-12-22T12:28:03;3.13;;;0.85;;
76978;SDS011;65911;47.502;19.148;2023-12-22T12:31:07;1.30;;;0.73;;
76978;SDS011;65911;47.502;19.148;2023-12-22T12:34:10;1.13;;;0.63;;
76978;SDS011;65911;47.502;19.148;2023-12-22T12:37:13;1.27;;;0.98;;
76978;SDS011;65911;47.502;19.148;2023-12-22T12:40:16;1.23;;;0.80;;
76978;SDS011;65911;47.502;19.148;2023-12-22T12:43:20;0.67;;;0.60;;
76978;SDS011;65911;47.502;19.148;2023-12-22T12:46:23;1.23;;;0.95;;
76978;SDS011;65911;47.502;19.148;2023-12-22T12:49:25;0.85;;;0.63;;
76978;SDS011;65911;47.502;19.148;2023-12-22T12:52:31;2.40;;;0.67;;
76978;SDS011;65911;47.502;19.148;2023-12-22T12:55:34;0.88;;;0.77;;
76978;SDS011;65911;47.502;19.148;2023-12-22T12:58:36;3.45;;;0.30;;
76978;SDS011;65911;47.502;19.148;2023-12-22T13:01:41;0.95;;;0.50;;
76978;SDS011;65911;47.502;19.148;2023-12-22T13:04:45;1.20;;;1.00;;
76978;SDS011;65911;47.502;19.148;2023-12-22T13:07:48;0.38;;;0.38;;
76978;SDS011;65911;47.502;19.148;2023-12-22T13:10:55;0.98;;;0.65;;
76978;SDS011;65911;47.502;19.148;2023-12-22T13:14:02;1.50;;;0.60;;
76978;SDS011;65911;47.502;19.148;2023-12-22T13:17:04;2.05;;;0.70;;
76978;SDS011;65911;47.502;19.148;2023-12-22T13:20:08;1.02;;;0.60;;
76978;SDS011;65911;47.502;19.148;2023-12-22T13:23:12;1.30;;;1.00;;
76978;SDS011;65911;47.502;19.148;2023-12-22T13:26:19;0.60;;;0.40;;
76978;SDS011;65911;47.502;19.148;2023-12-22T13:29:22;0.45;;;0.45;;
76978;SDS011;65911;47.502;19.148;2023-12-22T13:32:24;1.67;;;0.70;;
76978;SDS011;65911;47.502;19.148;2023-12-22T13:35:45;1.63;;;0.90;;
76978;SDS011;65911;47.502;19.148;2023-12-22T13:38:48;2.03;;;0.70;;
76978;SDS011;65911;47.502;19.148;2023-12-22T13:41:51;1.48;;;0.88;;
76978;SDS011;65911;47.502;19.148;2023-12-22T13:44:53;1.50;;;0.30;;
76978;SDS011;65911;47.502;19.148;2023-12-22T13:47:56;0.85;;;0.20;;
76978;SDS011;65911;47.502;19.148;2023-12-22T13:50:59;1.13;;;0.88;;
76978;SDS011;65911;47.502;19.148;2023-12-22T13:54:02;2.10;;;0.90;;
76978;SDS011;65911;47.502;19.148;2023-12-22T13:57:04;1.40;;;0.98;;
76978;SDS011;65911;47.502;19.148;2023-12-22T14:03:21;2.72;;;1.15;;
76978;SDS011;65911;47.502;19.148;2023-12-22T14:06:24;3.63;;;1.05;;
76978;SDS011;65911;47.502;19.148;2023-12-22T14:09:27;1.20;;;1.00;;
76978;SDS011;65911;47.502;19.148;2023-12-22T14:12:33;2.25;;;1.05;;
76978;SDS011;65911;47.502;19.148;2023-12-22T14:15:38;1.50;;;0.87;;
76978;SDS011;65911;47.502;19.148;2023-12-22T14:18:46;1.15;;;1.02;;
76978;SDS011;65911;47.502;19.148;2023-12-22T14:21:50;1.98;;;0.70;;
76978;SDS011;65911;47.502;19.148;2023-12-22T14:24:53;1.03;;;0.80;;
76978;SDS011;65911;47.502;19.148;2023-12-22T14:27:55;1.38;;;0.50;;
76978;SDS011;65911;47.502;19.148;2023-12-22T14:30:59;1.15;;;0.50;;
76978;SDS011;65911;47.502;19.148;2023-12-22T14:34:01;0.60;;;0.60;;
76978;SDS011;65911;47.502;19.148;2023-12-22T14:37:03;1.20;;;0.93;;
76978;SDS011;65911;47.502;19.148;2023-12-22T14:40:07;1.45;;;0.60;;
76978;SDS011;65911;47.502;19.148;2023-12-22T14:43:11;0.95;;;0.40;;
76978;SDS011;65911;47.502;19.148;2023-12-22T14:46:13;1.33;;;0.53;;
76978;SDS011;65911;47.502;19.148;2023-12-22T14:49:15;0.85;;;0.70;;
76978;SDS011;65911;47.502;19.148;2023-12-22T14:52:18;1.08;;;0.73;;
76978;SDS011;65911;47.502;19.148;2023-12-22T14:55:22;1.37;;;0.80;;
76978;SDS011;65911;47.502;19.148;2023-12-22T14:58:24;1.08;;;0.43;;
76978;SDS011;65911;47.502;19.148;2023-12-22T15:01:27;0.85;;;0.85;;
76978;SDS011;65911;47.502;19.148;2023-12-22T15:04:43;1.38;;;0.63;;
76978;SDS011;65911;47.502;19.148;2023-12-22T15:07:45;0.60;;;0.57;;
76978;SDS011;65911;47.502;19.148;2023-12-22T15:10:48;1.83;;;0.77;;
76978;SDS011;65911;47.502;19.148;2023-12-22T15:13:50;0.88;;;0.50;;
76978;SDS011;65911;47.502;19.148;2023-12-22T15:16:53;1.13;;;0.60;;
76978;SDS011;65911;47.502;19.148;2023-12-22T15:19:55;1.60;;;0.95;;
76978;SDS011;65911;47.502;19.148;2023-12-22T15:22:58;0.65;;;0.65;;
76978;SDS011;65911;47.502;19.148;2023-12-22T15:26:00;2.20;;;0.97;;
76978;SDS011;65911;47.502;19.148;2023-12-22T15:29:03;1.17;;;0.60;;
76978;SDS011;65911;47.502;19.148;2023-12-22T15:32:05;1.75;;;0.98;;
76978;SDS011;65911;47.502;19.148;2023-12-22T15:35:08;2.45;;;0.82;;
76978;SDS011;65911;47.502;19.148;2023-12-22T15:38:11;0.60;;;0.60;;
76978;SDS011;65911;47.502;19.148;2023-12-22T15:41:13;1.55;;;0.63;;
76978;SDS011;65911;47.502;19.148;2023-12-22T15:44:16;0.88;;;0.50;;
76978;SDS011;65911;47.502;19.148;2023-12-22T15:47:18;1.03;;;0.30;;
76978;SDS011;65911;47.502;19.148;2023-12-22T15:50:21;1.88;;;0.80;;
76978;SDS011;65911;47.502;19.148;2023-12-22T15:53:23;3.42;;;0.50;;
76978;SDS011;65911;47.502;19.148;2023-12-22T15:56:25;1.10;;;0.53;;
76978;SDS011;65911;47.502;19.148;2023-12-22T15:59:30;2.97;;;0.75;;
76978;SDS011;65911;47.502;19.148;2023-12-22T16:02:33;1.42;;;0.90;;
76978;SDS011;65911;47.502;19.148;2023-12-22T16:05:40;0.55;;;0.55;;
76978;SDS011;65911;47.502;19.148;2023-12-22T16:08:42;1.60;;;0.50;;
76978;SDS011;65911;47.502;19.148;2023-12-22T16:11:59;1.63;;;0.93;;
76978;SDS011;65911;47.502;19.148;2023-12-22T16:15:01;1.55;;;0.90;;
76978;SDS011;65911;47.502;19.148;2023-12-22T16:18:03;2.17;;;0.60;;
76978;SDS011;65911;47.502;19.148;2023-12-22T16:21:06;0.68;;;0.68;;
76978;SDS011;65911;47.502;19.148;2023-12-22T16:24:08;1.80;;;0.90;;
76978;SDS011;65911;47.502;19.148;2023-12-22T16:27:11;1.07;;;0.80;;
76978;SDS011;65911;47.502;19.148;2023-12-22T16:30:13;2.80;;;0.75;;
76978;SDS011;65911;47.502;19.148;2023-12-22T16:33:15;1.80;;;0.93;;
76978;SDS011;65911;47.502;19.148;2023-12-22T16:36:18;1.88;;;0.60;;
76978;SDS011;65911;47.502;19.148;2023-12-22T16:39:22;2.25;;;0.88;;
76978;SDS011;65911;47.502;19.148;2023-12-22T16:42:25;1.38;;;0.95;;
76978;SDS011;65911;47.502;19.148;2023-12-22T16:45:28;1.10;;;1.00;;
76978;SDS011;65911;47.502;19.148;2023-12-22T16:48:30;1.43;;;0.57;;
76978;SDS011;65911;47.502;19.148;2023-12-22T16:51:35;1.05;;;0.85;;
76978;SDS011;65911;47.502;19.148;2023-12-22T16:54:37;2.05;;;0.88;;
76978;SDS011;65911;47.502;19.148;2023-12-22T16:57:41;1.33;;;0.73;;
76978;SDS011;65911;47.502;19.148;2023-12-22T17:00:48;1.48;;;0.85;;
76978;SDS011;65911;47.502;19.148;2023-12-22T17:04:10;1.00;;;0.70;;
76978;SDS011;65911;47.502;19.148;2023-12-22T17:07:14;1.35;;;1.10;;
76978;SDS011;65911;47.502;19.148;2023-12-22T17:10:17;1.15;;;1.00;;
76978;SDS011;65911;47.502;19.148;2023-12-22T17:13:19;1.20;;;1.00;;
76978;SDS011;65911;47.502;19.148;2023-12-22T17:16:21;1.90;;;0.60;;
76978;SDS011;65911;47.502;19.148;2023-12-22T17:19:24;2.07;;;0.70;;
76978;SDS011;65911;47.502;19.148;2023-12-22T17:22:26;2.45;;;1.00;;
76978;SDS011;65911;47.502;19.148;2023-12-22T17:25:29;2.05;;;0.90;;
76978;SDS011;65911;47.502;19.148;2023-12-22T17:28:31;1.83;;;0.87;;
76978;SDS011;65911;47.502;19.148;2023-12-22T17:31:34;3.70;;;0.70;;
76978;SDS011;65911;47.502;19.148;2023-12-22T17:34:36;0.90;;;0.90;;
76978;SDS011;65911;47.502;19.148;2023-12-22T17:37:38;1.50;;;0.82;;
76978;SDS011;65911;47.502;19.148;2023-12-22T17:40:41;2.50;;;0.88;;
76978;SDS011;65911;47.502;19.148;2023-12-22T17:43:43;2.38;;;0.73;;
76978;SDS011;65911;47.502;19.148;2023-12-22T17:46:46;1.05;;;0.73;;
76978;SDS011;65911;47.502;19.148;2023-12-22T17:49:48;1.33;;;0.60;;
76978;SDS011;65911;47.502;19.148;2023-12-22T17:52:50;2.75;;;0.73;;
76978;SDS011;65911;47.502;19.148;2023-12-22T17:55:53;0.82;;;0.68;;
76978;SDS011;65911;47.502;19.148;2023-12-22T17:58:55;0.93;;;0.67;;
76978;SDS011;65911;47.502;19.148;2023-12-22T18:01:58;1.52;;;0.90;;
76978;SDS011;65911;47.502;19.148;2023-12-22T18:05:00;2.13;;;0.90;;
76978;SDS011;65911;47.502;19.148;2023-12-22T18:08:02;2.78;;;0.85;;
76978;SDS011;65911;47.502;19.148;2023-12-22T18:11:06;2.97;;;1.23;;
76978;SDS011;65911;47.502;19.148;2023-12-22T18:14:09;2.20;;;1.40;;
76978;SDS011;65911;47.502;19.148;2023-12-22T18:17:11;2.95;;;1.33;;
76978;SDS011;65911;47.502;19.148;2023-12-22T18:20:14;3.03;;;0.90;;